SKCC/CUC METAR and TAF weather

Enter ICAO airport designator
Station Type Date Time Source
SKCC METAR 2022/12/08 13:00 UTC NOAA

SKCC 081300Z VRB02KT 9999 SCT015 SCT070 23/21 Q1017 RMK A3003


Station Type Date Time Source
SKCC Decoded METAR 2022/12/08 13:00 UTC NOAA

Cucuta / Camilo Daza, Colombia (SKCC) 07-56N 072-31W 317M
Dec 08, 2022 - 08:00 AM EST / 2022.12.08 1300 UTC
Wind: Variable at 2 MPH (2 KT):0
Visibility: greater than 7 mile(s):0
Sky conditions: partly cloudy
Temperature: 73 F (23 C)
Dew Point: 69 F (21 C)
Relative Humidity: 88%
Pressure (altimeter): 30.03 in. Hg (1017 hPa)
ob: SKCC 081300Z VRB02KT 9999 SCT015 SCT070 23/21 Q1017 RMK A3003
cycle: 13

Station Type Date Time Source
SKCC TAF 2022/12/08 12:39 UTC NOAA

TAF SKCC 081030Z 0812/0912 VRB02KT 9999 FEW015
BECMG 0815/0817 36010KT SCT020
BECMG 0901/0903 VRB02KT SCT015 TX29/0818Z TN21/0910Z

Example: see airport list